Time;durP1;ratioP1;P1;durP2;ratioP2;P2;SDS_P1;SDS_P2;PMS_P1;PMS_P2;Temp;Humidity;BMP_temperature;BMP_pressure;BME280_temperature;BME280_humidity;BME280_pressure;Samples;Min_cycle;Max_cycle;Signal;HPM_P1;HPM_P2
2022/06/09 00:01:32;;;;;;;6.73;5.70;;;17.30;99.90;;;;;;5113091;28;20826;-71
2022/06/09 00:04:17;;;;;;;8.43;5.93;;;17.30;99.90;;;;;;5112856;28;20408;-71
2022/06/09 00:06:49;;;;;;;6.43;5.93;;;17.40;99.90;;;;;;5113934;28;20417;-71
2022/06/09 00:09:17;;;;;;;7.43;5.80;;;17.40;99.90;;;;;;5112892;28;20757;-71
2022/06/09 00:11:46;;;;;;;6.77;5.83;;;17.40;99.90;;;;;;5113591;28;20405;-71
2022/06/09 00:14:12;;;;;;;7.20;6.20;;;17.40;99.90;;;;;;5111706;28;20459;-71
2022/06/09 00:16:38;;;;;;;9.77;6.80;;;17.40;99.90;;;;;;5113505;28;20402;-71
2022/06/09 00:19:05;;;;;;;10.30;6.20;;;17.40;99.90;;;;;;5113095;28;20457;-70
2022/06/09 00:21:32;;;;;;;6.83;6.20;;;17.40;99.90;;;;;;5112890;28;20494;-71
2022/06/09 00:23:58;;;;;;;6.70;6.10;;;17.40;99.90;;;;;;5112783;28;20409;-70
2022/06/09 00:26:24;;;;;;;7.07;5.70;;;17.40;99.90;;;;;;5113118;28;20432;-70
2022/06/09 00:28:50;;;;;;;6.57;5.83;;;17.50;99.90;;;;;;5113877;28;20168;-71
2022/06/09 00:31:16;;;;;;;6.37;5.57;;;17.40;99.90;;;;;;5111517;28;20179;-70
2022/06/09 00:33:41;;;;;;;6.97;5.73;;;17.40;99.90;;;;;;5113282;28;20889;-71
2022/06/09 00:36:07;;;;;;;5.77;5.27;;;17.50;99.90;;;;;;5113297;28;20174;-71
2022/06/09 00:38:33;;;;;;;5.87;5.30;;;17.40;99.90;;;;;;5112698;28;20182;-71
2022/06/09 00:41:00;;;;;;;7.53;5.60;;;17.40;99.90;;;;;;5113165;28;20199;-71
2022/06/09 00:43:27;;;;;;;5.80;5.27;;;17.40;99.90;;;;;;5112596;28;20397;-70
2022/06/09 00:46:03;;;;;;;6.87;6.27;;;17.40;99.90;;;;;;5111845;28;20431;-70
2022/06/09 00:48:34;;;;;;;6.73;5.73;;;17.40;99.90;;;;;;5112443;28;20903;-70
2022/06/09 00:51:29;;;;;;;6.40;5.80;;;17.40;99.90;;;;;;5111961;28;20406;-71
2022/06/09 00:54:16;;;;;;;7.13;6.30;;;17.30;99.90;;;;;;5108045;28;20784;-70
2022/06/09 00:57:07;;;;;;;8.17;6.40;;;17.40;99.90;;;;;;5111958;28;20478;-70
2022/06/09 00:59:34;;;;;;;6.17;5.67;;;17.40;99.90;;;;;;5092426;28;20800;-70
2022/06/09 01:02:06;;;;;;;6.07;5.50;;;17.30;99.90;;;;;;5113028;28;20457;-71
2022/06/09 01:04:33;;;;;;;8.03;6.20;;;17.30;99.90;;;;;;5112504;28;20515;-70
2022/06/09 01:07:05;;;;;;;6.97;6.20;;;17.40;99.90;;;;;;5113248;28;20410;-71
2022/06/09 01:09:31;;;;;;;7.70;6.13;;;17.40;99.90;;;;;;5112410;28;20662;-71
2022/06/09 01:11:58;;;;;;;8.20;5.70;;;17.40;99.90;;;;;;5111658;28;20422;-70
2022/06/09 01:14:27;;;;;;;8.33;5.73;;;17.40;99.90;;;;;;5112297;28;20401;-71
2022/06/09 01:16:59;;;;;;;6.83;6.03;;;17.40;99.90;;;;;;5112550;28;20401;-71
2022/06/09 01:19:55;;;;;;;5.80;4.90;;;17.40;99.90;;;;;;5112342;28;20504;-71
2022/06/09 01:22:47;;;;;;;10.73;6.03;;;17.40;99.90;;;;;;5112038;28;20441;-71
2022/06/09 01:25:22;;;;;;;12.23;5.77;;;17.30;99.90;;;;;;5112012;28;20394;-71
2022/06/09 01:28:09;;;;;;;7.80;5.40;;;17.30;99.90;;;;;;5112877;28;20860;-71
2022/06/09 01:30:42;;;;;;;6.03;4.60;;;17.30;99.90;;;;;;5110890;28;20417;-70
2022/06/09 01:33:14;;;;;;;6.83;5.30;;;17.40;99.90;;;;;;5113023;28;20750;-71
2022/06/09 01:35:57;;;;;;;6.00;5.47;;;17.30;99.90;;;;;;5115681;28;20385;-71
2022/06/09 01:38:23;;;;;;;5.57;4.97;;;17.30;99.90;;;;;;5115978;28;20849;-70
2022/06/09 01:40:49;;;;;;;5.60;5.13;;;17.30;99.90;;;;;;5116647;28;20514;-70
2022/06/09 01:43:15;;;;;;;6.20;5.37;;;17.30;99.90;;;;;;5115994;28;20167;-71
2022/06/09 01:45:49;;;;;;;5.30;5.00;;;17.30;99.90;;;;;;5116884;28;20176;-71
2022/06/09 01:48:18;;;;;;;5.83;5.20;;;17.30;99.90;;;;;;5115809;28;20434;-71
2022/06/09 01:50:46;;;;;;;6.13;5.70;;;17.30;99.90;;;;;;5115962;28;20422;-70
2022/06/09 01:53:18;;;;;;;6.30;5.47;;;17.30;99.90;;;;;;5116227;28;20420;-71
2022/06/09 01:55:51;;;;;;;5.97;5.37;;;17.30;99.90;;;;;;5116357;28;20390;-71
2022/06/09 01:58:22;;;;;;;6.17;5.10;;;17.30;99.90;;;;;;5115602;28;20405;-71
2022/06/09 02:00:50;;;;;;;6.53;5.07;;;17.30;99.90;;;;;;5115998;28;20452;-70
2022/06/09 02:03:22;;;;;;;7.33;5.50;;;17.30;99.90;;;;;;5115466;28;20752;-71
2022/06/09 02:05:50;;;;;;;5.33;4.83;;;17.30;99.90;;;;;;5116076;28;20386;-70
2022/06/09 02:08:21;;;;;;;5.77;5.00;;;17.20;99.90;;;;;;5115382;28;20406;-71
2022/06/09 02:10:56;;;;;;;6.53;4.90;;;17.30;99.90;;;;;;5115899;28;20416;-71
2022/06/09 02:13:29;;;;;;;7.60;4.97;;;17.20;99.90;;;;;;5115363;28;20408;-71
2022/06/09 02:16:00;;;;;;;8.60;5.73;;;17.30;99.90;;;;;;5115774;28;20413;-71
2022/06/09 02:18:29;;;;;;;6.10;5.50;;;17.30;99.90;;;;;;5114844;28;20424;-71
2022/06/09 02:20:54;;;;;;;6.77;4.83;;;17.30;99.90;;;;;;5115709;28;20457;-71
2022/06/09 02:23:20;;;;;;;6.57;4.90;;;17.20;99.90;;;;;;5114792;28;20880;-71
2022/06/09 02:25:46;;;;;;;6.93;5.07;;;17.30;99.90;;;;;;5115599;28;20170;-70
2022/06/09 02:28:12;;;;;;;5.00;4.27;;;17.30;99.90;;;;;;5115484;28;20615;-71
2022/06/09 02:30:38;;;;;;;5.57;4.70;;;17.20;99.90;;;;;;5114931;28;20172;-71
2022/06/09 02:33:04;;;;;;;6.03;5.00;;;17.20;99.90;;;;;;5114310;28;20633;-71
2022/06/09 02:35:30;;;;;;;6.17;4.80;;;17.20;99.90;;;;;;5114836;28;20398;-71
2022/06/09 02:37:56;;;;;;;6.23;5.70;;;17.30;99.90;;;;;;5115104;28;20168;-70
2022/06/09 02:40:22;;;;;;;11.90;5.30;;;17.20;99.90;;;;;;5114666;28;20164;-71
2022/06/09 02:42:47;;;;;;;5.93;4.97;;;17.20;99.90;;;;;;5115335;28;20752;-70
2022/06/09 02:45:15;;;;;;;6.60;5.70;;;17.20;99.90;;;;;;5114334;28;20417;-70
2022/06/09 02:47:41;;;;;;;6.20;5.60;;;17.20;99.90;;;;;;5114081;28;20213;-70
2022/06/09 02:50:07;;;;;;;8.53;6.00;;;17.20;99.90;;;;;;5115311;28;20885;-70
2022/06/09 02:52:33;;;;;;;11.00;6.73;;;17.10;99.90;;;;;;5114598;28;20171;-70
2022/06/09 02:54:59;;;;;;;9.93;6.40;;;17.10;99.90;;;;;;5114707;28;20400;-71
2022/06/09 02:57:25;;;;;;;6.60;6.00;;;17.10;99.90;;;;;;5114099;28;20182;-70
2022/06/09 02:59:51;;;;;;;9.90;6.90;;;17.10;99.90;;;;;;5115244;28;20401;-71
2022/06/09 03:02:19;;;;;;;6.60;6.00;;;17.10;99.90;;;;;;5114797;28;20199;-71
2022/06/09 03:04:45;;;;;;;7.73;6.50;;;17.10;99.90;;;;;;5114921;28;20413;-70
2022/06/09 03:07:12;;;;;;;7.37;5.90;;;17.10;99.90;;;;;;5114803;28;20869;-70
2022/06/09 03:09:38;;;;;;;7.67;6.97;;;17.00;99.90;;;;;;5114163;28;20398;-70
2022/06/09 03:12:04;;;;;;;6.97;6.23;;;17.10;99.90;;;;;;5115007;28;20475;-71
2022/06/09 03:14:30;;;;;;;9.70;6.77;;;17.00;99.90;;;;;;5114089;28;20444;-70
2022/06/09 03:16:56;;;;;;;7.80;7.00;;;17.10;99.90;;;;;;5114839;28;20433;-71
2022/06/09 03:19:22;;;;;;;8.90;7.27;;;17.00;99.90;;;;;;5113567;28;20218;-71
2022/06/09 03:21:48;;;;;;;7.60;7.00;;;17.00;99.90;;;;;;5114560;28;20218;-71
2022/06/09 03:24:14;;;;;;;10.30;7.03;;;17.00;99.90;;;;;;5114301;28;20821;-71
2022/06/09 03:26:40;;;;;;;14.20;10.23;;;17.00;99.90;;;;;;5113935;28;20607;-71
2022/06/09 03:29:05;;;;;;;10.10;7.70;;;17.10;99.90;;;;;;5114498;28;20527;-70
2022/06/09 03:31:31;;;;;;;9.73;8.73;;;17.00;99.90;;;;;;5113797;28;20405;-71
2022/06/09 03:33:57;;;;;;;12.20;7.73;;;17.10;99.90;;;;;;5114270;28;20168;-71
2022/06/09 03:36:23;;;;;;;9.40;7.90;;;17.10;99.90;;;;;;5113642;28;20422;-71
2022/06/09 03:38:49;;;;;;;10.03;9.00;;;17.10;99.90;;;;;;5114298;28;20462;-71
2022/06/09 03:41:14;;;;;;;13.30;11.90;;;17.10;99.90;;;;;;5114365;28;20235;-71
2022/06/09 03:43:40;;;;;;;9.53;8.50;;;17.10;99.90;;;;;;5113280;28;20183;-70
2022/06/09 03:46:07;;;;;;;14.23;11.70;;;17.10;99.90;;;;;;5112918;28;20629;-70
2022/06/09 03:48:34;;;;;;;11.73;10.77;;;17.20;99.90;;;;;;5113517;28;20172;-71
2022/06/09 03:51:00;;;;;;;11.20;10.03;;;17.10;99.90;;;;;;5112861;28;20413;-70
2022/06/09 03:53:25;;;;;;;11.07;9.43;;;17.20;99.90;;;;;;5113314;28;20404;-71
2022/06/09 03:55:51;;;;;;;10.60;9.60;;;17.10;99.90;;;;;;5113903;28;20167;-70
2022/06/09 03:58:17;;;;;;;13.67;12.27;;;17.20;99.90;;;;;;5113050;28;20172;-70
2022/06/09 04:00:42;;;;;;;17.07;10.53;;;17.20;99.90;;;;;;5111726;28;20248;-70
2022/06/09 04:03:08;;;;;;;13.33;9.93;;;17.10;99.90;;;;;;5113834;28;20171;-70
2022/06/09 04:05:34;;;;;;;22.70;13.33;;;17.10;99.90;;;;;;5113179;28;20174;-70
2022/06/09 04:08:01;;;;;;;12.00;10.70;;;17.10;99.90;;;;;;5113386;28;20493;-70
2022/06/09 04:10:30;;;;;;;16.10;12.30;;;17.10;99.90;;;;;;5113126;28;20888;-71
2022/06/09 04:12:56;;;;;;;16.53;10.83;;;17.10;99.90;;;;;;5113897;28;20470;-70
2022/06/09 04:15:22;;;;;;;16.43;11.70;;;17.20;99.90;;;;;;5113539;28;20490;-72
2022/06/09 04:17:48;;;;;;;15.00;12.50;;;17.10;99.90;;;;;;5113320;28;20415;-70
2022/06/09 04:20:22;;;;;;;12.50;11.30;;;17.10;99.90;;;;;;5113361;28;20453;-70
2022/06/09 04:22:48;;;;;;;14.77;12.50;;;17.10;99.90;;;;;;5113598;28;20417;-70
2022/06/09 04:25:14;;;;;;;16.63;13.50;;;17.10;99.90;;;;;;5113465;28;20462;-70
2022/06/09 04:27:40;;;;;;;17.70;12.20;;;17.00;99.90;;;;;;5112832;28;20170;-70
2022/06/09 04:30:06;;;;;;;13.43;11.33;;;17.00;99.90;;;;;;5113698;28;20504;-70
2022/06/09 04:32:32;;;;;;;14.83;13.23;;;17.00;99.90;;;;;;5111592;28;20167;-71
2022/06/09 04:34:58;;;;;;;17.37;15.50;;;17.00;99.90;;;;;;5113302;28;20429;-70
2022/06/09 04:37:59;;;;;;;15.23;12.07;;;17.10;99.90;;;;;;5112913;28;20168;-75
2022/06/09 04:40:10;;;;;;;17.20;15.50;;;17.00;99.90;;;;;;5112941;28;20206;-70
2022/06/09 04:42:36;;;;;;;16.73;15.07;;;17.00;99.90;;;;;;5112351;28;20532;-71
2022/06/09 04:45:02;;;;;;;13.33;11.90;;;17.10;99.90;;;;;;5112114;28;20450;-70
2022/06/09 04:47:28;;;;;;;14.80;12.87;;;17.10;99.90;;;;;;5112522;28;20250;-71
2022/06/09 04:49:54;;;;;;;19.37;13.93;;;17.10;99.90;;;;;;5112850;28;21003;-70
2022/06/09 04:52:20;;;;;;;15.87;13.80;;;17.10;99.90;;;;;;5113245;28;20186;-70
2022/06/09 04:54:45;;;;;;;15.50;13.20;;;17.10;99.90;;;;;;5112779;28;20857;-71
2022/06/09 04:57:11;;;;;;;14.80;11.97;;;17.10;99.90;;;;;;5113315;28;20170;-70
2022/06/09 04:59:37;;;;;;;18.20;14.00;;;17.10;99.90;;;;;;5112204;28;20603;-70
2022/06/09 05:02:02;;;;;;;17.37;15.33;;;17.10;99.90;;;;;;5112950;28;20324;-70
2022/06/09 05:04:28;;;;;;;16.80;14.03;;;17.10;99.90;;;;;;5111213;28;20258;-70
2022/06/09 05:06:54;;;;;;;15.93;14.07;;;17.10;99.90;;;;;;5112773;28;20778;-70
2022/06/09 05:09:20;;;;;;;17.37;15.63;;;17.10;99.90;;;;;;5114225;28;20174;-70
2022/06/09 05:11:46;;;;;;;14.53;13.03;;;17.00;99.90;;;;;;5116785;28;20500;-70
2022/06/09 05:14:13;;;;;;;14.20;12.57;;;17.10;99.90;;;;;;5117019;27;20198;-70
2022/06/09 05:16:38;;;;;;;18.40;16.30;;;17.10;99.90;;;;;;5116437;28;20174;-70
2022/06/09 05:19:04;;;;;;;17.87;15.10;;;17.10;99.90;;;;;;5115221;28;20461;-70
2022/06/09 05:21:30;;;;;;;19.20;13.40;;;17.10;99.90;;;;;;5116190;28;20554;-70
2022/06/09 05:23:56;;;;;;;20.87;16.10;;;17.10;99.90;;;;;;5117009;28;20697;-70
2022/06/09 05:26:21;;;;;;;22.60;16.20;;;17.10;99.90;;;;;;5117111;28;20606;-70
2022/06/09 05:28:47;;;;;;;21.50;14.37;;;17.10;99.90;;;;;;5116188;28;20178;-70
2022/06/09 05:31:13;;;;;;;20.60;13.23;;;17.10;99.90;;;;;;5115242;28;20171;-70
2022/06/09 05:33:41;;;;;;;18.03;15.00;;;17.10;99.90;;;;;;5114728;28;20413;-70
2022/06/09 05:36:07;;;;;;;17.90;15.47;;;17.10;99.90;;;;;;5116538;28;20397;-70
2022/06/09 05:46:47;;;;;;;18.50;14.40;;;17.10;99.90;;;;;;5115805;28;20750;-70
2022/06/09 05:49:13;;;;;;;20.27;16.60;;;17.00;99.90;;;;;;5116419;28;20409;-70
2022/06/09 05:51:39;;;;;;;17.90;15.50;;;17.00;99.90;;;;;;5115642;28;20504;-70
2022/06/09 05:54:05;;;;;;;17.80;15.30;;;17.00;99.90;;;;;;5116110;28;20451;-70
2022/06/09 05:56:31;;;;;;;17.00;15.40;;;17.10;99.90;;;;;;5115312;28;20401;-71
2022/06/09 05:58:57;;;;;;;17.33;15.30;;;17.10;99.90;;;;;;5116147;28;20164;-70
2022/06/09 06:01:23;;;;;;;17.43;15.50;;;17.10;99.90;;;;;;5116039;28;20976;-70
2022/06/09 06:03:49;;;;;;;18.37;15.40;;;17.10;99.90;;;;;;5115536;28;20285;-70
2022/06/09 06:08:59;;;;;;;19.80;15.67;;;17.20;99.90;;;;;;5116069;28;20156;-70
2022/06/09 06:11:24;;;;;;;18.97;16.00;;;17.10;99.90;;;;;;5115942;28;20436;-70
2022/06/09 06:13:51;;;;;;;21.70;15.90;;;17.10;99.90;;;;;;5115256;28;20413;-70
2022/06/09 06:16:17;;;;;;;20.53;17.50;;;17.20;99.90;;;;;;5115820;28;20171;-70
2022/06/09 06:18:43;;;;;;;18.40;14.93;;;17.20;99.90;;;;;;5114759;28;20413;-70
2022/06/09 06:21:08;;;;;;;18.97;14.93;;;17.20;99.90;;;;;;5114777;28;20940;-70
2022/06/09 06:23:34;;;;;;;16.60;14.97;;;17.20;99.90;;;;;;5115127;28;20220;-70
2022/06/09 06:26:00;;;;;;;20.77;14.80;;;17.30;99.90;;;;;;5115648;28;20175;-71
2022/06/09 06:28:27;;;;;;;17.77;14.87;;;17.30;99.90;;;;;;5115334;28;20561;-70
2022/06/09 06:30:53;;;;;;;20.80;17.50;;;17.30;99.90;;;;;;5114947;28;20179;-70
2022/06/09 06:33:19;;;;;;;19.13;15.80;;;17.30;99.90;;;;;;5115503;28;20412;-70
2022/06/09 06:35:45;;;;;;;16.73;15.13;;;17.30;99.90;;;;;;5114856;28;20401;-70
2022/06/09 06:38:11;;;;;;;20.30;17.80;;;17.40;99.90;;;;;;5115448;28;20402;-70
2022/06/09 06:40:37;;;;;;;20.67;18.40;;;17.40;99.90;;;;;;5114723;28;20449;-70
2022/06/09 06:43:03;;;;;;;18.60;16.43;;;17.40;99.90;;;;;;5115533;28;20447;-70
2022/06/09 06:45:30;;;;;;;21.27;15.93;;;17.40;99.90;;;;;;5115301;28;20175;-70
2022/06/09 06:47:57;;;;;;;16.70;15.10;;;17.50;99.90;;;;;;5115045;28;20421;-71
2022/06/09 06:50:24;;;;;;;19.50;17.70;;;17.50;99.90;;;;;;5114011;28;20397;-70
2022/06/09 06:52:50;;;;;;;16.97;15.10;;;17.50;99.90;;;;;;5114502;28;20405;-70
2022/06/09 06:55:18;;;;;;;17.10;15.30;;;17.50;99.90;;;;;;5115077;28;20504;-70
2022/06/09 06:57:44;;;;;;;20.73;18.53;;;17.50;99.90;;;;;;5114466;28;20414;-70
2022/06/09 07:00:12;;;;;;;21.83;16.53;;;17.60;99.90;;;;;;5114921;28;20406;-70
2022/06/09 07:02:38;;;;;;;20.53;18.40;;;17.60;99.90;;;;;;5114294;28;20198;-70
2022/06/09 07:05:05;;;;;;;27.13;19.40;;;17.60;99.90;;;;;;5114949;28;20409;-70
2022/06/09 07:07:30;;;;;;;19.73;17.67;;;17.60;99.90;;;;;;5114584;28;20514;-70
2022/06/09 07:09:56;;;;;;;25.83;21.97;;;17.60;99.90;;;;;;5113954;28;20428;-70
2022/06/09 07:12:22;;;;;;;23.33;21.00;;;17.60;99.90;;;;;;5114742;28;20228;-70
2022/06/09 07:14:48;;;;;;;23.67;18.70;;;17.50;99.90;;;;;;5114161;28;20513;-70
2022/06/09 07:17:13;;;;;;;23.27;19.07;;;17.50;99.90;;;;;;5114699;28;20168;-70
2022/06/09 07:19:39;;;;;;;22.33;18.57;;;17.50;99.90;;;;;;5112447;28;20215;-70
2022/06/09 07:22:06;;;;;;;25.70;20.23;;;17.50;99.90;;;;;;5114418;28;20195;-70
2022/06/09 07:24:32;;;;;;;24.23;19.27;;;17.50;99.90;;;;;;5114554;28;20436;-70
2022/06/09 07:26:58;;;;;;;23.73;19.47;;;17.50;99.90;;;;;;5112802;28;20406;-70
2022/06/09 07:29:25;;;;;;;22.83;19.20;;;17.60;99.90;;;;;;5114402;28;20401;-70
2022/06/09 07:31:52;;;;;;;25.27;21.00;;;17.60;99.90;;;;;;5113617;28;20175;-70
2022/06/09 07:34:18;;;;;;;25.93;20.30;;;17.70;99.90;;;;;;5114280;28;20406;-70
2022/06/09 07:36:44;;;;;;;24.17;21.70;;;17.70;99.90;;;;;;5113435;28;20485;-70
2022/06/09 07:39:10;;;;;;;21.60;19.40;;;17.70;99.90;;;;;;5114229;28;20488;-70
2022/06/09 07:41:36;;;;;;;23.77;21.37;;;17.80;99.90;;;;;;5113371;28;20441;-70
2022/06/09 07:44:05;;;;;;;24.63;20.03;;;17.80;99.90;;;;;;5114282;28;20406;-70
2022/06/09 07:46:31;;;;;;;24.13;19.30;;;17.90;99.90;;;;;;5113922;28;20179;-70
2022/06/09 07:48:58;;;;;;;23.90;19.47;;;17.90;99.90;;;;;;5112147;28;20754;-70
2022/06/09 07:51:25;;;;;;;27.43;20.53;;;18.00;99.90;;;;;;5113976;28;20416;-70
2022/06/09 07:53:52;;;;;;;24.63;21.17;;;18.00;99.90;;;;;;5113252;28;20414;-70
2022/06/09 07:56:18;;;;;;;22.87;19.67;;;18.00;99.90;;;;;;5113557;28;20900;-70
2022/06/09 07:58:45;;;;;;;24.17;19.20;;;18.00;99.90;;;;;;5113270;28;20475;-69
2022/06/09 08:01:11;;;;;;;23.67;20.20;;;18.00;99.90;;;;;;5113868;27;20452;-70
2022/06/09 08:03:39;;;;;;;22.03;19.47;;;17.90;99.90;;;;;;5113058;28;20429;-71
2022/06/09 08:06:05;;;;;;;24.47;20.03;;;17.90;99.90;;;;;;5113957;28;20750;-70
2022/06/09 08:08:31;;;;;;;25.17;20.50;;;17.90;99.90;;;;;;5113679;28;20441;-70
2022/06/09 08:10:56;;;;;;;26.40;20.53;;;17.90;99.90;;;;;;5112877;28;20406;-70
2022/06/09 08:13:22;;;;;;;25.23;19.63;;;17.80;99.90;;;;;;5113620;28;20172;-70
2022/06/09 08:15:48;;;;;;;28.43;22.57;;;17.80;99.90;;;;;;5112709;28;20526;-70
2022/06/09 08:18:14;;;;;;;24.43;21.77;;;17.80;99.90;;;;;;5113363;28;20172;-70
2022/06/09 08:20:42;;;;;;;28.90;25.10;;;17.80;99.90;;;;;;5112506;28;20731;-70
2022/06/09 08:23:27;;;;;;;29.43;22.83;;;17.70;99.90;;;;;;5113510;28;20286;-70
2022/06/09 08:25:56;;;;;;;25.90;22.43;;;17.70;99.90;;;;;;5112873;28;20741;-70
2022/06/09 08:28:22;;;;;;;30.90;24.43;;;17.60;99.90;;;;;;5113461;28;20418;-70
2022/06/09 08:30:51;;;;;;;30.17;23.90;;;17.70;99.90;;;;;;5112772;28;20405;-71
2022/06/09 08:33:18;;;;;;;29.87;23.30;;;17.70;99.90;;;;;;5112166;28;20482;-71
2022/06/09 08:35:44;;;;;;;24.97;21.50;;;17.70;99.90;;;;;;5112699;28;20455;-71
2022/06/09 08:38:10;;;;;;;25.47;22.73;;;17.70;99.90;;;;;;5113532;28;20439;-70
2022/06/09 08:40:54;;;;;;;27.33;21.80;;;17.70;99.90;;;;;;5113115;28;20417;-70
2022/06/09 08:43:34;;;;;;;26.67;22.10;;;17.70;99.90;;;;;;5113061;28;20707;-70
2022/06/09 08:46:30;;;;;;;23.87;21.17;;;17.70;99.90;;;;;;5112728;28;20393;-70
2022/06/09 08:49:00;;;;;;;26.50;23.60;;;17.70;99.90;;;;;;5112345;28;20405;-70
2022/06/09 08:51:46;;;;;;;23.67;21.27;;;17.80;99.90;;;;;;5113165;28;20402;-70
2022/06/09 08:54:26;;;;;;;32.20;24.53;;;17.80;99.90;;;;;;5113057;28;20385;-70
2022/06/09 08:56:53;;;;;;;24.60;21.40;;;17.80;99.90;;;;;;5112550;28;20578;-70
2022/06/09 08:59:36;;;;;;;28.90;23.00;;;17.80;99.90;;;;;;5113018;28;20405;-70
2022/06/09 09:02:19;;;;;;;26.27;22.17;;;17.90;99.90;;;;;;5112481;28;20437;-70
2022/06/09 09:04:50;;;;;;;26.20;23.40;;;17.90;99.90;;;;;;5112641;28;20442;-70
2022/06/09 09:07:25;;;;;;;25.03;22.30;;;18.00;99.90;;;;;;5113157;28;20397;-70
2022/06/09 09:09:56;;;;;;;26.87;21.30;;;18.00;99.90;;;;;;5111193;28;20455;-70
2022/06/09 09:12:58;;;;;;;24.53;21.40;;;18.10;99.90;;;;;;5113164;28;20407;-70
2022/06/09 09:15:37;;;;;;;23.60;21.07;;;18.30;99.90;;;;;;5113241;28;20409;-70
2022/06/09 09:18:42;;;;;;;22.73;20.40;;;18.50;99.90;;;;;;5112623;28;20393;-71
2022/06/09 09:21:41;;;;;;;25.10;19.43;;;18.80;99.90;;;;;;5099365;28;20508;-70
2022/06/09 09:24:26;;;;;;;23.17;19.23;;;19.30;99.90;;;;;;5111622;28;20416;-70
2022/06/09 09:27:30;;;;;;;24.07;21.47;;;19.60;99.90;;;;;;5112300;28;20394;-70
2022/06/09 09:30:13;;;;;;;28.10;22.30;;;19.90;99.90;;;;;;5087829;28;20427;-71
2022/06/09 09:32:47;;;;;;;24.97;21.57;;;20.30;99.90;;;;;;5112521;28;20903;-70
2022/06/09 09:35:20;;;;;;;23.57;21.30;;;20.50;99.90;;;;;;5112665;28;20390;-70
2022/06/09 09:37:53;;;;;;;21.97;19.67;;;20.70;99.90;;;;;;5111958;28;20386;-71
2022/06/09 09:40:25;;;;;;;21.83;19.60;;;20.80;99.90;;;;;;5111176;28;20413;-70
2022/06/09 09:42:55;;;;;;;22.33;20.10;;;20.90;99.90;;;;;;5112094;28;20789;-71
2022/06/09 09:45:46;;;;;;;22.13;18.70;;;21.00;99.90;;;;;;5112738;28;20398;-70
2022/06/09 09:48:17;;;;;;;20.47;18.27;;;21.10;99.90;;;;;;5112500;28;20405;-70
2022/06/09 09:50:56;;;;;;;19.43;17.20;;;21.20;99.90;;;;;;5112299;28;20414;-71
2022/06/09 09:53:26;;;;;;;19.27;17.37;;;21.30;99.90;;;;;;5112862;28;20390;-70
2022/06/09 09:56:19;;;;;;;16.87;15.37;;;21.40;99.90;;;;;;5112127;28;20418;-70
2022/06/09 09:58:47;;;;;;;18.90;16.93;;;21.60;99.90;;;;;;5115618;28;20393;-71
2022/06/09 10:01:19;;;;;;;15.40;14.00;;;21.80;99.90;;;;;;5116120;28;20567;-70
2022/06/09 10:10:07;;;;;;;15.47;14.07;;;22.00;99.90;;;;;;5115430;28;20856;-70
2022/06/09 10:12:51;;;;;;;14.83;13.43;;;22.00;99.20;;;;;;5115375;28;20915;-71
2022/06/09 10:15:19;;;;;;;18.03;16.53;;;22.10;99.90;;;;;;5115980;28;20405;-71
2022/06/09 10:17:57;;;;;;;14.77;13.63;;;22.20;98.50;;;;;;5115372;28;20172;-71
2022/06/09 10:21:03;;;;;;;14.90;13.70;;;22.30;97.20;;;;;;5116031;28;20512;-70
2022/06/09 10:24:04;;;;;;;13.23;12.13;;;22.50;97.00;;;;;;5115720;28;20401;-71
2022/06/09 10:26:34;;;;;;;14.00;12.60;;;22.80;98.20;;;;;;5115463;28;20858;-70
2022/06/09 10:29:15;;;;;;;13.70;12.50;;;22.80;95.70;;;;;;5115216;28;20860;-70
2022/06/09 10:31:48;;;;;;;14.10;12.90;;;22.90;96.60;;;;;;5115684;28;20404;-71
2022/06/09 10:34:20;;;;;;;16.03;14.67;;;23.00;96.70;;;;;;5115767;28;20412;-71
2022/06/09 10:36:46;;;;;;;14.10;12.90;;;23.20;96.10;;;;;;5114954;28;20393;-71
2022/06/09 10:39:47;;;;;;;14.07;12.90;;;23.30;96.20;;;;;;5115571;28;20733;-71
2022/06/09 10:42:52;;;;;;;14.20;12.70;;;23.40;95.20;;;;;;5114339;28;20187;-71
2022/06/09 10:45:55;;;;;;;14.50;13.20;;;23.20;94.40;;;;;;5083684;28;20454;-70
2022/06/09 10:57:35;;;;;;;14.67;13.23;;;22.20;96.10;;;;;;5114820;28;20878;-70
2022/06/09 11:00:05;;;;;;;14.93;12.50;;;22.00;96.00;;;;;;5114472;28;20412;-71
2022/06/09 11:02:33;;;;;;;13.80;12.50;;;21.80;96.80;;;;;;5114950;28;20438;-71
2022/06/09 11:05:00;;;;;;;13.37;12.17;;;21.60;97.50;;;;;;5114191;28;20428;-71
2022/06/09 11:07:48;;;;;;;12.80;11.80;;;21.50;98.70;;;;;;5114321;28;20402;-71
2022/06/09 11:10:23;;;;;;;13.50;12.27;;;21.40;98.50;;;;;;5114950;28;20402;-70
2022/06/09 11:13:15;;;;;;;13.83;12.63;;;21.40;99.80;;;;;;5114498;28;20385;-70
2022/06/09 11:15:59;;;;;;;14.30;13.00;;;21.40;99.90;;;;;;5114528;28;20390;-70
2022/06/09 11:18:39;;;;;;;12.83;11.70;;;21.50;99.90;;;;;;5113281;28;20787;-70
2022/06/09 11:21:33;;;;;;;12.37;11.17;;;21.70;99.90;;;;;;5113944;28;20494;-71
2022/06/09 11:24:40;;;;;;;12.87;11.87;;;22.00;99.20;;;;;;5114077;28;20409;-70
2022/06/09 11:27:28;;;;;;;13.00;12.10;;;22.30;97.60;;;;;;5114233;28;20397;-71
2022/06/09 11:30:15;;;;;;;13.43;12.07;;;22.30;96.30;;;;;;5113896;28;20397;-70
2022/06/09 11:33:15;;;;;;;14.20;13.00;;;22.10;96.50;;;;;;5114372;28;20398;-71
2022/06/09 11:36:00;;;;;;;10.83;10.03;;;21.90;97.40;;;;;;5114508;28;20413;-71
2022/06/09 11:38:40;;;;;;;10.57;9.67;;;21.70;97.30;;;;;;5114242;28;20386;-71
2022/06/09 11:41:30;;;;;;;7.00;6.50;;;21.60;96.40;;;;;;5111955;28;20945;-70
2022/06/09 11:44:11;;;;;;;6.40;6.00;;;21.30;96.20;;;;;;5112310;28;20494;-71
2022/06/09 11:46:39;;;;;;;5.50;5.20;;;21.10;96.90;;;;;;5114147;28;20717;-70
2022/06/09 11:49:18;;;;;;;5.80;5.30;;;21.10;98.30;;;;;;5113523;28;20435;-71
2022/06/09 11:51:44;;;;;;;5.57;5.17;;;21.00;98.90;;;;;;5114207;28;20532;-70
2022/06/09 11:54:55;;;;;;;5.10;4.70;;;20.90;99.90;;;;;;5113332;28;20413;-71
2022/06/09 11:57:21;;;;;;;4.83;4.53;;;20.90;99.90;;;;;;5114029;28;20434;-71
2022/06/09 11:59:59;;;;;;;4.83;4.53;;;20.80;99.90;;;;;;5113813;28;20504;-70
2022/06/09 12:02:40;;;;;;;5.80;4.20;;;20.80;99.90;;;;;;5113771;28;20320;-71
2022/06/09 12:05:26;;;;;;;4.03;3.67;;;20.90;99.00;;;;;;5112903;28;20436;-71
2022/06/09 12:08:14;;;;;;;6.40;6.00;;;21.20;99.90;;;;;;5113290;28;20396;-72
2022/06/09 12:10:58;;;;;;;4.03;3.60;;;21.50;99.90;;;;;;5113358;28;20755;-70
2022/06/09 12:13:27;;;;;;;4.43;4.03;;;21.80;98.60;;;;;;5113666;28;20402;-71
2022/06/09 12:16:02;;;;;;;5.40;4.90;;;22.10;97.70;;;;;;5112983;28;20433;-71
2022/06/09 12:18:45;;;;;;;4.93;4.63;;;22.30;97.30;;;;;;5112677;28;20769;-69
2022/06/09 12:21:26;;;;;;;3.80;3.60;;;22.40;94.80;;;;;;5112889;28;20797;-71
2022/06/09 12:23:52;;;;;;;3.00;2.80;;;22.50;95.70;;;;;;5112950;28;20398;-74
2022/06/09 12:26:25;;;;;;;3.50;3.20;;;22.50;94.40;;;;;;5113352;28;20410;-70
2022/06/09 12:28:57;;;;;;;3.40;3.20;;;22.50;94.30;;;;;;5112020;28;20159;-76
2022/06/09 12:31:35;;;;;;;4.80;4.60;;;22.50;94.60;;;;;;5113477;28;20394;-70
2022/06/09 12:34:04;;;;;;;3.67;3.47;;;22.60;96.50;;;;;;5112456;28;20932;-71
2022/06/09 12:36:51;;;;;;;3.30;3.20;;;22.70;93.60;;;;;;5113223;28;20497;-71
2022/06/09 12:39:21;;;;;;;5.63;5.40;;;22.90;94.00;;;;;;5112708;28;20421;-71
2022/06/09 12:41:58;;;;;;;4.23;4.03;;;22.90;93.30;;;;;;5111982;28;20468;-70
2022/06/09 12:44:23;;;;;;;4.20;4.00;;;23.00;92.50;;;;;;5113439;28;20385;-71
2022/06/09 12:47:18;;;;;;;6.50;6.20;;;22.90;92.60;;;;;;5113069;28;20897;-71
2022/06/09 12:49:51;;;;;;;6.70;6.30;;;22.80;92.30;;;;;;5103405;28;20253;-71
2022/06/09 12:52:20;;;;;;;6.17;5.57;;;22.70;92.40;;;;;;5112873;28;20510;-71
2022/06/09 12:54:46;;;;;;;3.70;3.50;;;22.50;92.70;;;;;;5113036;28;20441;-70
2022/06/09 12:57:24;;;;;;;3.10;3.00;;;22.20;91.20;;;;;;5112294;28;20400;-71
2022/06/09 13:00:16;;;;;;;3.00;2.90;;;21.90;91.20;;;;;;5112878;28;20416;-71
2022/06/09 13:02:43;;;;;;;4.50;4.30;;;21.70;91.40;;;;;;5112812;28;20440;-71
2022/06/09 13:05:27;;;;;;;3.50;3.33;;;21.40;91.70;;;;;;5112438;28;20433;-71
2022/06/09 13:08:19;;;;;;;4.03;3.83;;;21.00;92.20;;;;;;5113035;28;20435;-71
2022/06/09 13:10:53;;;;;;;2.00;1.90;;;20.70;94.10;;;;;;5110632;28;20426;-71
2022/06/09 13:13:40;;;;;;;2.83;2.57;;;20.40;97.60;;;;;;5112942;28;20384;-71
2022/06/09 13:16:12;;;;;;;3.63;3.53;;;20.20;99.00;;;;;;5112342;28;20467;-72
2022/06/09 13:18:45;;;;;;;2.93;2.73;;;20.00;99.90;;;;;;5112659;28;20500;-71
2022/06/09 13:21:23;;;;;;;7.40;2.83;;;19.90;99.90;;;;;;5112071;28;20453;-71
2022/06/09 13:23:52;;;;;;;2.67;2.57;;;19.60;99.90;;;;;;5112869;28;20429;-71
2022/06/09 13:26:32;;;;;;;3.97;3.80;;;19.40;99.90;;;;;;5112264;28;20492;-71